Time;durP1;ratioP1;P1;durP2;ratioP2;P2;SDS_P1;SDS_P2;PMS_P1;PMS_P2;Temp;Humidity;BMP_temperature;BMP_pressure;BME280_temperature;BME280_humidity;BME280_pressure;Samples;Min_cycle;Max_cycle;Signal;HPM_P1;HPM_P2
2024/01/07 00:00:49;;;;;;;105.68;15.30;;;;;;;4.85;100.00;97278.06;5003973;28;20783;-59
2024/01/07 00:03:14;;;;;;;132.23;14.35;;;;;;;4.77;100.00;97276.31;5003733;28;20605;-59
2024/01/07 00:05:40;;;;;;;97.88;13.57;;;;;;;4.73;100.00;97274.56;5003104;28;20952;-58
2024/01/07 00:08:05;;;;;;;96.63;13.85;;;;;;;4.78;100.00;97275.47;5003302;28;20045;-59
2024/01/07 00:10:30;;;;;;;182.15;18.00;;;;;;;4.75;100.00;97278.00;5001145;28;20038;-59
2024/01/07 00:12:56;;;;;;;80.40;12.50;;;;;;;4.73;100.00;97274.56;5005300;28;20037;-60
2024/01/07 00:15:21;;;;;;;176.80;17.10;;;;;;;4.66;100.00;97275.34;5003541;28;20074;-60
2024/01/07 00:17:46;;;;;;;126.15;16.45;;;;;;;4.65;100.00;97278.78;5004155;28;20045;-60
2024/01/07 00:20:12;;;;;;;76.70;11.70;;;;;;;4.62;100.00;97277.03;5001595;28;20167;-59
2024/01/07 00:22:37;;;;;;;106.03;13.57;;;;;;;4.50;100.00;97284.66;5000425;28;20010;-59
2024/01/07 00:25:03;;;;;;;134.93;14.93;;;;;;;4.58;100.00;97280.44;5006114;28;20388;-58
2024/01/07 00:27:28;;;;;;;150.23;16.75;;;;;;;4.63;100.00;97277.88;5001459;28;20531;-59
2024/01/07 00:29:53;;;;;;;114.35;14.55;;;;;;;4.66;100.00;97273.66;5003453;28;20026;-61
2024/01/07 00:32:18;;;;;;;144.80;15.57;;;;;;;4.62;100.00;97286.47;5000644;28;20033;-62
2024/01/07 00:34:44;;;;;;;134.60;14.90;;;;;;;4.62;100.00;97271.03;5004210;28;20555;-60
2024/01/07 00:37:09;;;;;;;102.35;13.93;;;;;;;4.40;100.00;97282.00;5003115;28;20038;-60
2024/01/07 00:39:34;;;;;;;260.33;20.75;;;;;;;4.48;100.00;97288.91;5003160;28;20485;-59
2024/01/07 00:42:00;;;;;;;137.05;14.15;;;;;;;4.54;100.00;97286.41;5019759;28;20045;-58
2024/01/07 00:44:25;;;;;;;191.35;17.27;;;;;;;4.50;100.00;97288.09;5024579;28;20518;-60
2024/01/07 00:46:50;;;;;;;155.85;15.52;;;;;;;4.49;100.00;97293.25;5022254;28;20064;-59
2024/01/07 00:49:16;;;;;;;57.00;11.60;;;;;;;4.63;100.00;97283.03;5025417;28;20490;-60
2024/01/07 00:51:42;;;;;;;83.10;13.15;;;;;;;4.49;100.00;97291.50;5025052;28;20095;-60
2024/01/07 00:54:07;;;;;;;119.38;13.85;;;;;;;4.54;100.00;97289.84;5025296;28;20061;-62
2024/01/07 00:56:32;;;;;;;143.90;14.82;;;;;;;4.55;100.00;97291.59;5021509;28;20037;-62
2024/01/07 00:58:58;;;;;;;93.03;13.05;;;;;;;4.52;100.00;97295.81;5025339;28;20079;-62
2024/01/07 01:01:23;;;;;;;150.98;17.35;;;;;;;4.49;100.00;97291.50;5023641;28;20045;-61
2024/01/07 01:03:48;;;;;;;97.05;14.00;;;;;;;4.60;100.00;97293.34;5025500;28;20082;-61
2024/01/07 01:06:14;;;;;;;118.72;15.45;;;;;;;4.72;100.00;97293.44;5023511;28;20114;-62
2024/01/07 01:08:40;;;;;;;142.80;15.65;;;;;;;4.74;100.00;97294.31;5018259;28;20029;-61
2024/01/07 01:11:05;;;;;;;111.25;15.55;;;;;;;4.68;100.00;97296.84;5020655;28;20437;-60
2024/01/07 01:13:30;;;;;;;180.65;18.42;;;;;;;4.76;100.00;97299.47;5019004;28;20508;-60
2024/01/07 01:15:56;;;;;;;129.23;16.13;;;;;;;4.95;100.00;97301.34;5021023;28;20033;-60
2024/01/07 01:18:21;;;;;;;105.97;13.05;;;;;;;4.68;100.00;97302.84;5020962;28;20029;-61
2024/01/07 01:20:46;;;;;;;109.20;15.63;;;;;;;5.12;100.00;97302.34;5021620;28;20044;-60
2024/01/07 01:23:12;;;;;;;133.85;16.08;;;;;;;4.86;100.00;97306.44;5021263;28;20033;-61
2024/01/07 01:25:39;;;;;;;162.98;18.55;;;;;;;4.83;100.00;97309.00;5019482;28;20042;-60
2024/01/07 01:28:05;;;;;;;109.75;14.90;;;;;;;4.76;100.00;97313.25;5021679;28;20032;-60
2024/01/07 01:30:31;;;;;;;167.32;18.55;;;;;;;4.79;100.00;97309.81;5019381;28;20044;-62
2024/01/07 01:32:57;;;;;;;100.10;14.55;;;;;;;4.73;100.00;97318.34;5020632;28;20412;-60
2024/01/07 01:35:22;;;;;;;137.45;15.35;;;;;;;4.56;100.00;97321.63;5020146;28;20491;-62
2024/01/07 01:37:48;;;;;;;102.72;14.63;;;;;;;4.60;100.00;97317.38;5022393;28;20244;-60
2024/01/07 01:40:13;;;;;;;126.25;15.27;;;;;;;4.64;100.00;97307.97;5021810;28;20036;-60
2024/01/07 01:42:43;;;;;;;172.48;16.88;;;;;;;4.49;100.00;97313.84;5019473;28;20119;-61
2024/01/07 01:45:08;;;;;;;119.38;14.38;;;;;;;4.47;100.00;97313.81;5021175;28;20025;-61
2024/01/07 01:47:34;;;;;;;175.48;17.75;;;;;;;4.47;100.00;97313.81;5018944;28;20100;-62
2024/01/07 01:49:59;;;;;;;137.18;16.52;;;;;;;4.63;100.00;97311.38;5018374;28;20071;-60
2024/01/07 01:52:26;;;;;;;128.20;15.30;;;;;;;4.50;100.00;97312.97;5023054;28;20037;-61
2024/01/07 01:54:52;;;;;;;111.53;14.05;;;;;;;4.54;100.00;97314.75;5021748;28;20035;-60
2024/01/07 01:57:22;;;;;;;134.50;14.18;;;;;;;4.41;100.00;97308.59;5022295;28;20041;-60
2024/01/07 01:59:48;;;;;;;99.88;13.93;;;;;;;4.58;100.00;97316.50;5019707;28;20455;-62
2024/01/07 02:02:14;;;;;;;121.00;16.80;;;;;;;4.62;100.00;97314.81;5021816;28;20044;-60
2024/01/07 02:04:40;;;;;;;184.85;17.38;;;;;;;4.63;100.00;97319.09;5020376;28;20343;-61
2024/01/07 02:07:05;;;;;;;125.57;14.52;;;;;;;4.73;100.00;97314.91;5010669;28;20045;-62
2024/01/07 02:09:31;;;;;;;200.65;16.35;;;;;;;4.62;100.00;97322.53;5018600;28;20029;-61
2024/01/07 02:12:02;;;;;;;114.35;14.10;;;;;;;4.65;100.00;97317.41;5021640;28;20143;-61
2024/01/07 02:14:28;;;;;;;171.48;22.67;;;;;;;4.60;100.00;97319.94;5018345;28;20030;-62
2024/01/07 02:16:53;;;;;;;126.53;17.23;;;;;;;4.48;100.00;97330.13;5021247;28;20109;-61
2024/01/07 02:19:21;;;;;;;103.45;12.88;;;;;;;4.45;100.00;97325.78;5019990;28;20052;-60
2024/01/07 02:21:46;;;;;;;127.43;15.80;;;;;;;4.46;100.00;97336.97;5020947;28;20034;-60
2024/01/07 02:24:16;;;;;;;130.05;29.35;;;;;;;4.48;100.00;97328.41;5019547;28;20045;-59
2024/01/07 02:26:41;;;;;;;154.52;21.58;;;;;;;4.43;100.00;97327.50;5021344;28;20590;-59
2024/01/07 02:29:06;;;;;;;107.40;12.30;;;;;;;4.30;100.00;97335.09;5023017;28;20033;-59
2024/01/07 02:31:31;;;;;;;184.43;17.20;;;;;;;4.16;100.00;97334.09;5023370;28;20088;-59
2024/01/07 02:33:57;;;;;;;123.57;16.45;;;;;;;4.36;100.00;97326.59;5026386;28;20125;-58
2024/01/07 02:36:22;;;;;;;101.15;23.33;;;;;;;4.22;100.00;97329.00;5022618;28;20064;-60
2024/01/07 02:38:47;;;;;;;133.10;29.08;;;;;;;4.36;100.00;97326.59;5021675;28;20501;-58
2024/01/07 02:41:13;;;;;;;86.25;12.25;;;;;;;4.44;100.00;97336.94;5024744;28;20097;-58
2024/01/07 02:43:38;;;;;;;180.73;17.58;;;;;;;4.44;100.00;97336.94;5023782;28;20040;-59
2024/01/07 02:46:03;;;;;;;156.50;24.30;;;;;;;4.39;100.00;97330.91;5023589;28;20084;-59
2024/01/07 02:48:29;;;;;;;169.07;58.45;;;;;;;4.25;100.00;97334.19;5024246;28;20037;-60
2024/01/07 02:50:55;;;;;;;110.28;19.42;;;;;;;4.17;100.00;97336.66;5020394;28;20037;-61
2024/01/07 02:53:20;;;;;;;139.85;22.98;;;;;;;4.04;100.00;97338.22;5027275;28;20033;-58
2024/01/07 02:55:46;;;;;;;110.97;12.68;;;;;;;4.14;100.00;97336.63;5022267;28;20097;-58
2024/01/07 02:58:11;;;;;;;116.60;27.20;;;;;;;4.08;100.00;97343.41;5024862;28;20033;-60
2024/01/07 03:00:36;;;;;;;160.90;15.50;;;;;;;4.14;100.00;97333.19;5022576;28;20536;-59
2024/01/07 03:03:02;;;;;;;117.55;25.33;;;;;;;3.84;100.00;97334.53;5022998;28;20029;-60
2024/01/07 03:05:29;;;;;;;157.82;15.38;;;;;;;3.89;100.00;97340.59;5023590;28;20041;-60
2024/01/07 03:07:54;;;;;;;304.30;200.13;;;;;;;4.12;100.00;97332.31;5023854;28;20057;-60
2024/01/07 03:10:19;;;;;;;92.32;12.23;;;;;;;4.04;100.00;97342.50;5022783;28;20033;-59
2024/01/07 03:12:45;;;;;;;228.25;86.38;;;;;;;3.91;100.00;97344.06;5022189;28;20556;-59
2024/01/07 03:15:10;;;;;;;119.10;13.50;;;;;;;3.80;100.00;97345.63;5022940;28;20506;-60
2024/01/07 03:17:35;;;;;;;154.98;14.52;;;;;;;3.85;100.00;97344.84;5022379;28;20057;-58
2024/01/07 03:20:01;;;;;;;108.18;13.60;;;;;;;3.98;100.00;97340.75;5023946;28;20031;-58
2024/01/07 03:22:26;;;;;;;161.30;27.80;;;;;;;3.88;100.00;97337.19;5023317;28;20159;-58
2024/01/07 03:24:51;;;;;;;102.15;12.70;;;;;;;3.96;100.00;97345.00;5022422;28;20132;-60
2024/01/07 03:27:17;;;;;;;129.80;31.08;;;;;;;3.95;100.00;97352.69;5025625;28;20056;-59
2024/01/07 03:29:42;;;;;;;163.23;21.33;;;;;;;3.93;100.00;97350.09;5023468;28;20368;-58
2024/01/07 03:32:07;;;;;;;101.93;12.82;;;;;;;3.88;100.00;97344.91;5023832;28;20041;-59
2024/01/07 03:34:33;;;;;;;176.65;16.98;;;;;;;3.95;100.00;97351.00;5024755;28;20021;-59
2024/01/07 03:36:58;;;;;;;134.82;26.58;;;;;;;4.09;100.00;97340.88;5024264;28;20063;-59
2024/01/07 03:39:23;;;;;;;119.72;35.03;;;;;;;3.73;100.00;97349.81;5022490;28;20057;-59
2024/01/07 03:41:48;;;;;;;114.07;11.88;;;;;;;3.76;100.00;97355.88;5022445;28;20036;-59
2024/01/07 03:44:14;;;;;;;95.47;12.32;;;;;;;3.93;100.00;97350.09;5023764;28;20447;-60
2024/01/07 03:46:39;;;;;;;143.63;22.60;;;;;;;3.86;100.00;97358.59;5020784;28;20588;-60
2024/01/07 03:49:05;;;;;;;129.10;13.65;;;;;;;3.78;100.00;97354.19;5021692;28;20086;-60
2024/01/07 03:51:30;;;;;;;114.40;15.02;;;;;;;3.95;100.00;97360.41;5021162;28;20057;-59
2024/01/07 03:53:55;;;;;;;133.95;47.92;;;;;;;3.79;100.00;97367.94;5022992;28;20021;-59
2024/01/07 03:56:20;;;;;;;114.22;16.08;;;;;;;3.84;100.00;97362.84;5022110;28;20256;-59
2024/01/07 03:58:46;;;;;;;160.02;15.38;;;;;;;3.59;100.00;97367.63;5022456;28;20025;-59
2024/01/07 04:01:16;;;;;;;103.28;25.88;;;;;;;3.67;100.00;97371.19;5024912;28;20106;-59
2024/01/07 04:03:41;;;;;;;229.93;49.83;;;;;;;3.67;100.00;97371.19;5021847;28;20067;-59
2024/01/07 04:06:07;;;;;;;106.53;15.02;;;;;;;3.61;100.00;97373.69;5024127;28;20151;-61
2024/01/07 04:08:33;;;;;;;129.50;15.57;;;;;;;3.81;100.00;97378.22;5026436;28;20029;-59
2024/01/07 04:10:58;;;;;;;123.35;13.30;;;;;;;3.86;100.00;97379.19;5023193;28;20327;-59
2024/01/07 04:13:23;;;;;;;175.32;80.40;;;;;;;3.82;100.00;97375.69;5028069;28;20048;-59
2024/01/07 04:15:49;;;;;;;121.85;14.90;;;;;;;3.90;100.00;97381.78;5025305;28;20055;-59
2024/01/07 04:18:14;;;;;;;121.80;13.88;;;;;;;3.99;100.00;97383.63;5026352;28;20118;-60
2024/01/07 04:20:39;;;;;;;127.90;12.60;;;;;;;3.96;100.00;97388.72;5022982;28;20428;-59
2024/01/07 04:23:05;;;;;;;111.03;13.02;;;;;;;4.01;100.00;97387.06;5024599;28;20028;-61
2024/01/07 04:25:30;;;;;;;127.85;12.93;;;;;;;3.84;100.00;97393.72;5024709;28;20095;-59
2024/01/07 04:27:55;;;;;;;121.53;14.85;;;;;;;3.96;100.00;97388.72;5024416;28;20058;-60
2024/01/07 04:30:20;;;;;;;129.15;24.52;;;;;;;3.99;100.00;97396.50;5024715;28;20037;-60
2024/01/07 04:32:46;;;;;;;155.25;14.75;;;;;;;3.91;100.00;97400.69;5023215;28;20025;-59
2024/01/07 04:35:11;;;;;;;118.95;12.43;;;;;;;3.77;100.00;97403.94;5024057;28;20029;-58
2024/01/07 04:37:37;;;;;;;128.98;14.20;;;;;;;3.70;100.00;97407.25;5006451;28;20440;-60
2024/01/07 04:40:03;;;;;;;148.70;45.35;;;;;;;3.67;100.00;97412.34;5023377;28;20028;-59
2024/01/07 04:42:28;;;;;;;89.55;16.95;;;;;;;3.58;100.00;97417.34;5023115;28;20471;-59
2024/01/07 04:44:54;;;;;;;97.72;13.65;;;;;;;3.62;100.00;97412.28;5024529;28;20052;-58
2024/01/07 04:47:29;;;;;;;130.05;22.80;;;;;;;3.50;100.00;97415.50;5025409;28;20049;-59
2024/01/07 04:49:54;;;;;;;125.00;32.55;;;;;;;3.25;100.00;97427.09;5023439;28;20032;-59
2024/01/07 04:52:22;;;;;;;131.10;14.00;;;;;;;3.35;100.00;97423.00;5024506;28;20373;-60
2024/01/07 04:54:47;;;;;;;155.73;26.65;;;;;;;3.42;100.00;97424.84;5025404;28;20021;-61
2024/01/07 04:57:12;;;;;;;152.38;55.88;;;;;;;3.30;100.00;97429.78;5023830;28;20099;-59
2024/01/07 04:59:38;;;;;;;206.90;17.25;;;;;;;3.53;100.00;97426.69;5023026;28;20098;-58
2024/01/07 05:02:03;;;;;;;114.18;12.63;;;;;;;3.50;100.00;97435.22;5023390;28;20048;-61
2024/01/07 05:04:28;;;;;;;134.90;12.75;;;;;;;3.29;100.00;97435.72;5024057;28;20033;-59
2024/01/07 05:06:54;;;;;;;142.23;11.07;;;;;;;3.36;100.00;97440.13;5024507;28;20048;-59
2024/01/07 05:09:19;;;;;;;99.22;12.85;;;;;;;3.56;100.00;97435.31;5026254;28;20029;-60
2024/01/07 05:11:44;;;;;;;95.13;13.38;;;;;;;3.53;100.00;97443.00;5023612;28;20041;-59
2024/01/07 05:14:11;;;;;;;127.88;13.85;;;;;;;3.55;100.00;97441.31;5022571;28;20089;-58
2024/01/07 05:16:37;;;;;;;122.93;33.63;;;;;;;3.68;100.00;97447.53;5022676;28;20079;-59
2024/01/07 05:19:02;;;;;;;97.43;11.80;;;;;;;3.60;100.00;97454.25;5024372;28;20107;-60
2024/01/07 05:21:27;;;;;;;143.35;13.95;;;;;;;3.64;100.00;97453.47;5022554;28;20033;-60
2024/01/07 05:23:52;;;;;;;107.00;11.75;;;;;;;3.57;100.00;97457.63;5023611;28;20053;-58
2024/01/07 05:26:18;;;;;;;116.00;12.07;;;;;;;3.57;100.00;97456.75;5022714;28;20051;-60
2024/01/07 05:28:43;;;;;;;192.63;15.60;;;;;;;3.66;100.00;97459.47;5021020;28;20080;-59
2024/01/07 05:31:16;;;;;;;121.57;18.23;;;;;;;3.59;100.00;97462.78;5021284;28;20049;-59
2024/01/07 05:33:42;;;;;;;131.88;23.95;;;;;;;3.40;100.00;97462.50;5022323;28;20071;-58
2024/01/07 05:36:07;;;;;;;167.25;49.70;;;;;;;3.73;100.00;97463.88;5019644;28;20059;-59
2024/01/07 05:38:33;;;;;;;138.82;38.00;;;;;;;3.51;100.00;97470.38;5022851;28;20018;-58
2024/01/07 05:40:58;;;;;;;114.50;26.77;;;;;;;3.44;100.00;97474.56;5021374;28;20120;-58
2024/01/07 05:43:23;;;;;;;127.22;18.33;;;;;;;3.14;100.00;97478.31;5022769;28;20401;-58
2024/01/07 05:45:48;;;;;;;108.43;11.40;;;;;;;3.27;100.00;97484.56;5020133;28;20605;-59
2024/01/07 05:48:14;;;;;;;102.75;11.98;;;;;;;3.35;100.00;97477.81;5003072;28;20393;-59
2024/01/07 05:50:39;;;;;;;188.25;15.60;;;;;;;3.12;100.00;97483.44;5019066;28;20071;-59
2024/01/07 05:53:04;;;;;;;139.50;13.38;;;;;;;3.22;100.00;97483.59;5021819;28;20128;-60
2024/01/07 05:55:30;;;;;;;150.18;17.05;;;;;;;3.35;100.00;97480.41;5019802;28;20040;-59
2024/01/07 05:57:56;;;;;;;133.05;12.57;;;;;;;3.43;100.00;97484.81;5023730;28;20025;-62
2024/01/07 06:00:21;;;;;;;98.35;11.60;;;;;;;3.18;100.00;97490.41;5020604;28;20108;-59
2024/01/07 06:02:47;;;;;;;136.27;13.32;;;;;;;3.32;100.00;97487.19;5020557;28;20061;-59
2024/01/07 06:05:12;;;;;;;139.55;12.23;;;;;;;3.33;100.00;97494.94;5020446;28;20028;-60
2024/01/07 06:07:38;;;;;;;154.02;14.38;;;;;;;3.29;100.00;97497.41;5018440;28;20255;-61
2024/01/07 06:10:03;;;;;;;143.60;14.20;;;;;;;3.32;100.00;97507.75;5020107;28;20028;-59
2024/01/07 06:12:28;;;;;;;141.38;13.57;;;;;;;3.30;100.00;97502.59;5018898;28;20033;-59
2024/01/07 06:14:54;;;;;;;136.45;13.15;;;;;;;3.42;100.00;97501.97;5021008;28;20033;-59
2024/01/07 06:17:19;;;;;;;154.48;17.75;;;;;;;3.33;100.00;97502.66;5019295;28;20528;-61
2024/01/07 06:19:44;;;;;;;129.43;14.48;;;;;;;3.41;100.00;97497.63;5021490;28;20032;-60
2024/01/07 06:22:10;;;;;;;83.93;10.75;;;;;;;3.03;100.00;97502.94;5022744;28;20033;-61
2024/01/07 06:24:36;;;;;;;168.88;20.60;;;;;;;3.01;100.00;97500.38;5020208;28;20444;-59
2024/01/07 06:27:03;;;;;;;245.50;123.75;;;;;;;3.05;100.00;97502.16;5021355;28;20041;-60
2024/01/07 06:29:29;;;;;;;166.75;14.93;;;;;;;2.96;100.00;97509.66;5022424;28;20040;-61
2024/01/07 06:31:54;;;;;;;142.23;12.90;;;;;;;3.11;100.00;97512.53;5021459;28;20044;-59
2024/01/07 06:34:19;;;;;;;124.32;16.80;;;;;;;3.23;100.00;97509.31;5023432;28;20048;-60
2024/01/07 06:36:45;;;;;;;139.65;19.35;;;;;;;2.88;100.00;97511.22;5022039;28;20042;-60
2024/01/07 06:39:10;;;;;;;121.57;13.27;;;;;;;2.77;100.00;97523.84;5020896;28;20336;-59
2024/01/07 06:41:36;;;;;;;122.97;13.63;;;;;;;2.56;100.00;97522.59;5022029;28;20044;-62
2024/01/07 06:44:02;;;;;;;103.75;12.25;;;;;;;2.81;100.00;97525.66;5020751;28;20013;-62
2024/01/07 06:46:28;;;;;;;140.55;13.65;;;;;;;2.86;100.00;97521.50;5022158;28;20532;-61
2024/01/07 06:48:53;;;;;;;120.00;11.98;;;;;;;2.89;100.00;97516.41;5023477;28;20025;-60
2024/01/07 06:51:18;;;;;;;107.38;12.40;;;;;;;2.79;100.00;97515.38;5022015;28;20390;-60
2024/01/07 06:53:44;;;;;;;168.05;16.75;;;;;;;2.75;100.00;97531.56;5022394;28;20033;-60
2024/01/07 06:56:09;;;;;;;98.55;13.95;;;;;;;2.78;100.00;97534.16;5022447;28;20610;-62
2024/01/07 06:58:34;;;;;;;116.60;14.23;;;;;;;2.81;100.00;97536.81;5020098;28;20037;-60
2024/01/07 07:01:00;;;;;;;136.82;14.30;;;;;;;2.82;100.00;97538.53;5017763;28;20544;-61
2024/01/07 07:03:25;;;;;;;96.90;13.13;;;;;;;2.50;100.00;97549.00;5023525;28;20400;-61
2024/01/07 07:05:50;;;;;;;131.02;15.27;;;;;;;2.76;100.00;97546.13;5021244;28;20124;-63
2024/01/07 07:08:16;;;;;;;131.65;38.80;;;;;;;2.75;100.00;97546.09;5022242;28;20033;-64
2024/01/07 07:10:41;;;;;;;144.30;12.57;;;;;;;2.66;100.00;97539.03;5021047;28;20049;-63
2024/01/07 07:13:06;;;;;;;123.18;12.88;;;;;;;2.72;100.00;97542.59;5023496;28;20775;-63
2024/01/07 07:15:32;;;;;;;155.43;24.05;;;;;;;2.73;100.00;97548.63;5023635;28;20376;-62
2024/01/07 07:17:57;;;;;;;153.90;44.15;;;;;;;2.77;100.00;97537.56;5026646;28;20103;-60
2024/01/07 07:20:23;;;;;;;109.35;13.23;;;;;;;2.76;100.00;97552.94;5024639;28;20441;-62
2024/01/07 07:22:48;;;;;;;156.98;17.52;;;;;;;2.60;100.00;97552.66;5025081;28;20484;-60
2024/01/07 07:25:13;;;;;;;106.78;15.32;;;;;;;2.37;100.00;97554.69;5025605;28;20056;-60
2024/01/07 07:27:38;;;;;;;122.18;15.68;;;;;;;2.45;100.00;97558.31;5025823;28;20037;-63
2024/01/07 07:30:05;;;;;;;140.68;13.80;;;;;;;2.49;100.00;97554.97;5023876;28;20440;-59
2024/01/07 07:32:30;;;;;;;108.47;13.70;;;;;;;2.56;100.00;97561.97;5010249;28;20044;-62
2024/01/07 07:34:56;;;;;;;123.28;11.23;;;;;;;2.55;100.00;97572.19;5025172;28;20025;-61
2024/01/07 07:37:21;;;;;;;112.25;13.43;;;;;;;2.47;100.00;97572.91;5025107;28;20501;-61
2024/01/07 07:39:46;;;;;;;132.98;25.80;;;;;;;2.34;100.00;97576.03;5025504;28;20041;-62
2024/01/07 07:42:12;;;;;;;111.32;14.60;;;;;;;2.35;100.00;97582.91;5026727;28;20033;-60
2024/01/07 07:44:39;;;;;;;113.80;12.52;;;;;;;2.54;100.00;97586.75;5024243;28;20108;-60
2024/01/07 07:47:04;;;;;;;131.48;15.35;;;;;;;2.50;100.00;97590.09;5024270;28;20059;-60
2024/01/07 07:49:29;;;;;;;219.48;19.40;;;;;;;2.51;100.00;97594.38;5026304;28;20025;-60
2024/01/07 07:51:56;;;;;;;154.40;14.25;;;;;;;2.58;100.00;97595.38;5024116;28;20120;-63
2024/01/07 07:54:21;;;;;;;130.02;16.58;;;;;;;2.62;100.00;97604.88;5024632;28;20052;-60
2024/01/07 07:56:47;;;;;;;204.95;52.47;;;;;;;2.28;100.00;97606.69;5023099;28;20109;-62
2024/01/07 07:59:13;;;;;;;107.10;13.48;;;;;;;2.42;100.00;97618.13;5026402;28;20040;-60
2024/01/07 08:01:39;;;;;;;131.63;27.85;;;;;;;2.35;100.00;97616.25;5025422;28;20036;-63
2024/01/07 08:04:05;;;;;;;385.35;206.35;;;;;;;2.32;100.00;97621.31;5026667;28;20029;-61
2024/01/07 08:06:31;;;;;;;136.70;19.90;;;;;;;2.37;100.00;97626.56;5023593;28;20052;-60
2024/01/07 08:08:56;;;;;;;128.90;15.35;;;;;;;2.49;100.00;97628.56;5025101;28;20182;-62
2024/01/07 08:11:21;;;;;;;133.70;14.18;;;;;;;2.35;100.00;97626.53;5023073;28;20060;-63
2024/01/07 08:13:47;;;;;;;129.20;16.15;;;;;;;2.38;100.00;97629.19;5024105;28;20033;-64
2024/01/07 08:16:13;;;;;;;102.03;18.95;;;;;;;2.50;100.00;97630.28;5004928;28;20304;-62
2024/01/07 08:18:38;;;;;;;167.60;49.28;;;;;;;2.40;100.00;97636.88;5005216;28;20591;-62
2024/01/07 08:21:04;;;;;;;133.95;15.10;;;;;;;2.38;100.00;97639.44;5022204;28;20243;-60
2024/01/07 08:23:29;;;;;;;121.22;13.68;;;;;;;2.51;100.00;97639.72;5024529;28;20266;-61
2024/01/07 08:25:54;;;;;;;188.73;17.73;;;;;;;2.41;100.00;97649.75;5021842;28;20052;-61
2024/01/07 08:28:20;;;;;;;185.02;55.08;;;;;;;2.26;100.00;97654.56;5024290;28;20079;-61
2024/01/07 08:30:46;;;;;;;307.35;142.20;;;;;;;1.66;100.00;97642.78;5024582;28;20453;-60
2024/01/07 08:33:11;;;;;;;173.85;74.38;;;;;;;1.93;100.00;97643.50;5023946;28;20607;-61
2024/01/07 08:35:37;;;;;;;132.50;23.30;;;;;;;2.09;100.00;97639.59;5023844;28;20095;-65
2024/01/07 08:38:03;;;;;;;124.05;15.07;;;;;;;2.01;100.00;97648.81;5024362;28;20105;-62
2024/01/07 08:40:29;;;;;;;194.02;73.18;;;;;;;2.07;100.00;97648.94;5022297;28;20155;-61
2024/01/07 08:42:54;;;;;;;132.70;16.23;;;;;;;1.96;100.00;97666.63;5025383;28;20111;-61
2024/01/07 08:45:20;;;;;;;120.53;13.10;;;;;;;1.94;100.00;97668.31;5020995;28;20539;-63
2024/01/07 08:47:45;;;;;;;185.55;50.55;;;;;;;1.64;100.00;97664.09;5024592;28;20352;-61
2024/01/07 08:50:11;;;;;;;112.57;16.60;;;;;;;1.77;100.00;97670.41;5022040;28;20033;-61
2024/01/07 08:52:36;;;;;;;118.15;19.13;;;;;;;1.76;100.00;97677.25;5024754;28;20381;-64
2024/01/07 08:55:02;;;;;;;157.02;22.85;;;;;;;1.80;100.00;97673.94;5024053;28;20229;-63
2024/01/07 08:57:28;;;;;;;142.07;23.95;;;;;;;1.76;100.00;97676.38;5023909;28;20047;-62
2024/01/07 08:59:53;;;;;;;171.68;41.20;;;;;;;1.45;100.00;97684.13;5021998;28;20037;-61
2024/01/07 09:02:18;;;;;;;114.88;16.15;;;;;;;1.94;100.00;97683.69;5020263;28;20124;-61
2024/01/07 09:04:44;;;;;;;111.60;16.48;;;;;;;1.71;100.00;97678.84;5028435;28;20218;-62
2024/01/07 09:07:09;;;;;;;97.70;19.65;;;;;;;1.78;100.00;97692.69;5029551;28;20041;-64
2024/01/07 09:09:35;;;;;;;152.95;16.35;;;;;;;1.86;100.00;97691.19;5028812;28;20604;-64
2024/01/07 09:12:00;;;;;;;138.38;13.48;;;;;;;1.65;100.00;97699.16;5026769;28;20045;-64
2024/01/07 09:14:26;;;;;;;116.72;35.92;;;;;;;1.52;100.00;97706.50;5030206;28;20025;-62
2024/01/07 09:16:51;;;;;;;166.88;33.80;;;;;;;1.19;100.00;97714.09;5008197;28;20041;-61
2024/01/07 09:19:17;;;;;;;236.35;151.40;;;;;;;1.33;100.00;97707.66;5028896;28;20040;-64
2024/01/07 09:21:43;;;;;;;140.77;74.15;;;;;;;0.90;100.00;97720.09;5026826;28;20056;-61
2024/01/07 09:24:09;;;;;;;104.60;16.67;;;;;;;1.26;100.00;97722.00;5027798;28;20408;-63
2024/01/07 09:26:34;;;;;;;97.40;13.25;;;;;;;1.52;100.00;97728.72;5024622;28;20288;-63
2024/01/07 09:29:01;;;;;;;148.25;13.75;;;;;;;1.26;100.00;97729.69;5012562;28;20488;-61
2024/01/07 09:31:26;;;;;;;99.18;14.13;;;;;;;1.29;100.00;97727.22;5025706;28;20037;-62
2024/01/07 09:33:52;;;;;;;132.88;22.83;;;;;;;1.39;100.00;97725.81;5026334;28;20032;-65
2024/01/07 09:36:17;;;;;;;320.48;152.57;;;;;;;1.22;100.00;97722.72;5026329;28;20044;-64
2024/01/07 09:38:43;;;;;;;98.32;24.90;;;;;;;1.45;100.00;97719.09;5027216;28;20927;-63
2024/01/07 09:41:08;;;;;;;100.82;14.40;;;;;;;1.49;100.00;97731.19;5027276;28;20558;-61
2024/01/07 09:43:33;;;;;;;147.68;56.65;;;;;;;1.43;100.00;97735.31;5028490;28;20025;-60
2024/01/07 09:45:59;;;;;;;131.52;19.27;;;;;;;1.16;100.00;97741.34;5024328;28;20129;-61
2024/01/07 09:48:25;;;;;;;77.53;20.52;;;;;;;1.46;100.00;97744.78;5027716;28;20029;-63
2024/01/07 09:50:51;;;;;;;158.65;18.70;;;;;;;1.32;100.00;97736.69;5024582;28;20529;-61
2024/01/07 09:53:20;;;;;;;86.20;14.82;;;;;;;1.22;100.00;97734.69;5028538;28;20028;-61
2024/01/07 09:55:51;;;;;;;78.70;13.13;;;;;;;1.56;100.00;97736.53;5025816;28;20060;-64
2024/01/07 09:58:17;;;;;;;69.85;14.27;;;;;;;1.63;100.00;97749.53;5027069;28;20021;-65
2024/01/07 10:00:42;;;;;;;100.72;22.08;;;;;;;1.40;100.00;97740.34;5025140;28;20393;-62
2024/01/07 10:03:07;;;;;;;105.00;14.00;;;;;;;1.26;100.00;97744.22;5027235;28;20124;-63
2024/01/07 10:05:33;;;;;;;128.57;14.73;;;;;;;1.71;100.00;97736.91;5026292;28;20091;-61
2024/01/07 10:07:58;;;;;;;132.50;12.73;;;;;;;1.64;100.00;97751.25;5022226;28;20033;-64
2024/01/07 10:10:23;;;;;;;89.80;16.30;;;;;;;1.69;100.00;97748.00;5022142;28;20037;-61
2024/01/07 10:12:49;;;;;;;127.03;13.40;;;;;;;1.84;100.00;97749.25;5024800;28;20057;-61
2024/01/07 10:15:14;;;;;;;92.45;28.67;;;;;;;1.91;100.00;97748.59;5026060;28;20154;-61
2024/01/07 10:17:42;;;;;;;105.57;22.55;;;;;;;1.64;100.00;97749.56;5024053;28;20021;-62
2024/01/07 10:20:09;;;;;;;85.05;17.80;;;;;;;1.93;100.00;97754.63;5024130;28;20522;-63
2024/01/07 10:22:37;;;;;;;93.35;23.15;;;;;;;2.10;100.00;97750.78;5025034;28;20631;-62
2024/01/07 10:25:02;;;;;;;204.30;58.20;;;;;;;1.79;100.00;97755.97;5011271;28;20036;-64
2024/01/07 10:27:28;;;;;;;85.63;13.45;;;;;;;1.65;100.00;97758.13;5023074;28;20041;-60
2024/01/07 10:29:55;;;;;;;148.35;23.98;;;;;;;1.63;100.00;97750.38;5024385;28;20075;-64
2024/01/07 10:32:20;;;;;;;130.65;41.08;;;;;;;1.46;100.00;97754.16;5025203;28;20038;-62
2024/01/07 10:34:49;;;;;;;87.57;12.90;;;;;;;1.65;100.00;97743.63;5026242;28;20025;-61
2024/01/07 10:37:14;;;;;;;75.90;12.75;;;;;;;1.84;100.00;97748.38;5023504;28;20037;-62
2024/01/07 10:39:40;;;;;;;167.93;17.52;;;;;;;2.00;100.00;97745.41;5023969;28;20574;-62
2024/01/07 10:42:06;;;;;;;151.13;77.05;;;;;;;2.02;100.00;97750.56;5022944;28;20593;-62
2024/01/07 10:44:32;;;;;;;97.35;19.70;;;;;;;1.91;100.00;97756.31;5024628;28;20033;-63
2024/01/07 10:46:59;;;;;;;158.52;15.55;;;;;;;2.05;100.00;97766.06;5023143;28;20079;-62
2024/01/07 10:49:26;;;;;;;146.88;90.90;;;;;;;1.84;100.00;97758.63;5027349;28;20041;-62
2024/01/07 10:52:08;;;;;;;154.27;16.42;;;;;;;1.77;100.00;97765.28;5030482;28;20048;-63
2024/01/07 10:54:35;;;;;;;118.03;16.35;;;;;;;1.99;100.00;97771.00;5030714;28;20033;-63
2024/01/07 10:57:14;;;;;;;157.75;16.88;;;;;;;1.68;100.00;97763.34;5028773;28;20033;-62
2024/01/07 10:59:41;;;;;;;145.18;22.13;;;;;;;1.91;100.00;97768.25;5026648;28;20069;-62
2024/01/07 11:02:08;;;;;;;108.13;40.35;;;;;;;2.21;100.00;97762.19;5028006;28;20897;-62